Time;durP1;ratioP1;P1;durP2;ratioP2;P2;SDS_P1;SDS_P2;PMS_P1;PMS_P2;Temp;Humidity;BMP_temperature;BMP_pressure;BME280_temperature;BME280_humidity;BME280_pressure;Samples;Min_cycle;Max_cycle;Signal;HPM_P1;HPM_P2
2022/06/29 00:00:15;;;;;;;3.47;2.70;;;;;;;24.69;51.66;97169.34;5070589;28;20573;-73
2022/06/29 00:02:43;;;;;;;3.57;3.07;;;;;;;24.63;51.62;97152.25;5069493;28;20698;-73
2022/06/29 00:05:12;;;;;;;5.67;2.80;;;;;;;24.71;51.49;97148.84;5052642;28;20229;-73
2022/06/29 00:07:41;;;;;;;4.37;3.20;;;;;;;24.57;51.38;97138.78;5070319;28;20198;-73
2022/06/29 00:10:10;;;;;;;4.43;3.00;;;;;;;24.47;51.67;97153.94;5051738;28;20199;-73
2022/06/29 00:12:37;;;;;;;4.43;3.10;;;;;;;24.48;52.07;97145.00;5070552;28;20559;-73
2022/06/29 00:15:06;;;;;;;7.57;3.30;;;;;;;24.44;51.49;97130.41;5034532;28;20229;-73
2022/06/29 00:17:33;;;;;;;3.93;3.53;;;;;;;24.46;51.38;97147.00;5070530;28;20218;-73
2022/06/29 00:20:03;;;;;;;3.73;3.30;;;;;;;24.50;51.74;97132.44;5069506;28;20241;-73
2022/06/29 00:22:31;;;;;;;3.60;3.30;;;;;;;24.32;51.81;97137.75;5070190;28;20205;-73
2022/06/29 00:24:59;;;;;;;3.53;3.00;;;;;;;24.38;51.47;97131.03;5051917;28;20195;-73
2022/06/29 00:27:26;;;;;;;6.13;4.00;;;;;;;24.51;51.26;97128.81;5051468;28;20273;-73
2022/06/29 00:29:53;;;;;;;4.77;3.20;;;;;;;24.62;51.12;97128.56;5070067;28;20681;-74
2022/06/29 00:32:20;;;;;;;4.60;3.50;;;;;;;24.70;50.30;97131.28;5068460;28;20697;-73
2022/06/29 00:34:47;;;;;;;4.73;3.20;;;;;;;24.85;49.73;97124.47;5069937;28;20187;-73
2022/06/29 00:37:14;;;;;;;5.33;3.50;;;;;;;24.79;50.34;97138.34;5068651;28;20236;-73
2022/06/29 00:39:42;;;;;;;3.83;3.43;;;;;;;24.60;51.26;97149.06;5052115;28;20243;-73
2022/06/29 00:42:09;;;;;;;5.97;3.57;;;;;;;24.54;51.80;97144.41;5069658;28;20231;-73
2022/06/29 00:44:36;;;;;;;5.77;3.10;;;;;;;24.33;51.05;97118.25;5069071;28;20200;-73
2022/06/29 00:47:05;;;;;;;7.03;3.77;;;;;;;24.68;51.88;97149.13;5069753;28;20265;-73
2022/06/29 00:49:33;;;;;;;6.20;3.90;;;;;;;24.73;53.09;97154.81;5069210;28;20186;-73
2022/06/29 00:52:08;;;;;;;4.47;3.83;;;;;;;24.63;53.34;97154.06;5069858;28;20222;-74
2022/06/29 00:54:39;;;;;;;4.17;3.73;;;;;;;24.53;53.61;97155.97;5067620;28;20182;-73
2022/06/29 00:57:14;;;;;;;4.20;3.77;;;;;;;24.53;52.55;97154.16;5069292;28;20228;-74
2022/06/29 00:59:47;;;;;;;5.70;3.73;;;;;;;24.65;52.85;97147.63;5069674;28;20255;-73
2022/06/29 01:02:16;;;;;;;6.00;3.90;;;;;;;24.66;52.57;97153.75;5068579;28;20677;-74
2022/06/29 01:04:44;;;;;;;3.97;3.57;;;;;;;24.60;52.37;97144.63;5069636;28;20191;-73
2022/06/29 01:07:13;;;;;;;4.43;3.77;;;;;;;24.56;51.96;97137.13;5068594;28;20189;-73
2022/06/29 01:09:42;;;;;;;6.83;3.60;;;;;;;24.55;51.87;97140.75;5069266;28;20893;-73
2022/06/29 01:12:10;;;;;;;4.43;3.47;;;;;;;24.41;51.45;97136.84;5068798;28;20184;-73
2022/06/29 01:14:44;;;;;;;7.77;3.63;;;;;;;24.58;51.04;97135.16;5068433;28;20190;-72
2022/06/29 01:17:12;;;;;;;9.47;3.90;;;;;;;24.52;51.19;97133.13;5050761;28;20234;-73
2022/06/29 01:19:41;;;;;;;5.00;3.47;;;;;;;24.46;51.59;97125.81;5067865;28;20244;-73
2022/06/29 01:22:15;;;;;;;5.77;3.03;;;;;;;24.57;51.37;97133.47;5068954;28;20189;-73
2022/06/29 01:24:44;;;;;;;4.60;3.10;;;;;;;24.53;51.49;97122.38;5050036;28;20602;-73
2022/06/29 01:27:16;;;;;;;4.83;3.00;;;;;;;24.69;50.55;97121.69;5050613;28;20323;-73
2022/06/29 01:29:43;;;;;;;3.70;3.40;;;;;;;24.72;50.48;97124.84;5069157;28;20736;-74
2022/06/29 01:32:11;;;;;;;5.67;3.10;;;;;;;24.62;51.25;97123.28;5049692;28;20198;-73
2022/06/29 01:34:39;;;;;;;4.60;3.70;;;;;;;24.69;50.97;97127.78;5068961;28;20280;-73
2022/06/29 01:37:06;;;;;;;3.40;3.10;;;;;;;24.66;50.53;97109.56;5067596;28;20655;-73
2022/06/29 01:39:34;;;;;;;5.17;3.53;;;;;;;24.75;50.09;97121.09;5068810;28;20536;-73
2022/06/29 01:42:02;;;;;;;3.43;3.07;;;;;;;24.83;49.79;97121.13;5067567;28;20186;-73
2022/06/29 01:44:29;;;;;;;4.57;2.90;;;;;;;24.74;50.27;97117.59;5068321;28;20188;-73
2022/06/29 01:46:56;;;;;;;5.17;3.10;;;;;;;24.68;50.76;97118.19;5068147;28;20686;-73
2022/06/29 01:49:23;;;;;;;5.60;3.30;;;;;;;24.57;51.03;97117.59;5067550;28;20188;-73
2022/06/29 01:51:50;;;;;;;4.00;3.10;;;;;;;24.45;51.00;97103.78;5068342;28;20292;-73
2022/06/29 01:54:17;;;;;;;5.17;3.17;;;;;;;24.57;50.88;97114.94;5049545;28;20743;-72
2022/06/29 01:56:45;;;;;;;4.73;3.00;;;;;;;24.50;50.81;97100.69;5068398;28;20217;-73
2022/06/29 01:59:12;;;;;;;5.33;3.17;;;;;;;24.54;50.72;97102.03;5067378;28;20186;-73
2022/06/29 02:01:39;;;;;;;3.60;3.30;;;;;;;24.49;50.80;97105.13;5067852;28;20252;-74
2022/06/29 02:04:06;;;;;;;3.67;3.37;;;;;;;24.48;50.92;97107.94;5068321;28;20185;-73
2022/06/29 02:06:34;;;;;;;3.57;3.23;;;;;;;24.50;51.26;97100.69;5067100;28;20280;-73
2022/06/29 02:09:01;;;;;;;3.70;3.20;;;;;;;24.44;51.40;97104.75;5068221;28;20343;-73
2022/06/29 02:11:28;;;;;;;3.10;2.80;;;;;;;24.42;51.26;97098.78;5048695;28;20578;-72
2022/06/29 02:13:55;;;;;;;5.57;2.87;;;;;;;24.42;50.97;97095.31;5068160;28;20178;-72
2022/06/29 02:16:22;;;;;;;3.73;3.40;;;;;;;24.20;51.60;97100.09;5066978;28;20225;-73
2022/06/29 02:18:49;;;;;;;4.03;2.60;;;;;;;24.27;50.96;97102.13;5033442;28;20214;-73
2022/06/29 02:21:16;;;;;;;3.97;3.30;;;;;;;24.30;51.27;97099.19;5049667;28;20259;-73
2022/06/29 02:23:44;;;;;;;5.57;3.53;;;;;;;24.29;51.63;97102.81;5067341;28;20193;-73
2022/06/29 02:26:11;;;;;;;3.03;2.80;;;;;;;24.24;51.07;97090.03;5067601;28;20218;-73
2022/06/29 02:28:38;;;;;;;5.73;3.93;;;;;;;24.29;51.41;97082.47;5048711;28;20548;-72
2022/06/29 02:36:37;;;;;;;4.30;3.07;;;;;;;24.16;51.32;97100.56;5066741;28;20225;-72
2022/06/29 02:39:04;;;;;;;6.37;3.17;;;;;;;24.20;51.14;97105.41;5067560;28;20190;-73
2022/06/29 02:41:31;;;;;;;5.83;3.23;;;;;;;24.16;51.39;97106.69;5066411;28;20189;-72
2022/06/29 02:43:58;;;;;;;5.33;3.07;;;;;;;24.20;51.66;97110.69;5067759;28;20246;-72
2022/06/29 02:46:25;;;;;;;11.73;3.20;;;;;;;24.17;51.27;97100.41;5066638;28;20183;-73
2022/06/29 02:48:52;;;;;;;4.37;3.43;;;;;;;24.07;51.78;97099.66;5049936;28;20194;-73
2022/06/29 02:51:19;;;;;;;3.03;2.80;;;;;;;24.08;51.73;97105.78;5067154;28;20204;-73
2022/06/29 02:53:47;;;;;;;5.23;3.07;;;;;;;24.07;51.48;97085.63;5049003;28;20196;-73
2022/06/29 02:56:14;;;;;;;5.87;2.90;;;;;;;24.15;51.76;97090.97;5067333;28;20192;-73
2022/06/29 02:58:41;;;;;;;7.33;3.43;;;;;;;24.14;51.44;97098.06;5066531;28;20557;-72
2022/06/29 03:01:08;;;;;;;4.87;3.20;;;;;;;24.20;50.88;97096.63;5067468;28;20182;-73
2022/06/29 03:03:35;;;;;;;3.63;2.93;;;;;;;24.17;51.65;97100.41;5065958;28;20181;-73
2022/06/29 03:06:02;;;;;;;5.50;3.43;;;;;;;24.26;51.63;97101.31;5067179;28;20197;-72
2022/06/29 03:08:29;;;;;;;3.97;3.10;;;;;;;24.24;51.74;97101.47;5066570;28;20191;-72
2022/06/29 03:10:56;;;;;;;5.80;3.00;;;;;;;24.28;50.81;97093.22;5066857;28;20255;-72
2022/06/29 03:13:23;;;;;;;2.90;2.60;;;;;;;24.34;50.73;97096.06;5067227;28;20194;-73
2022/06/29 03:15:51;;;;;;;4.60;3.10;;;;;;;24.34;50.47;97090.78;5066718;28;20187;-72
2022/06/29 03:18:18;;;;;;;3.30;2.80;;;;;;;24.42;50.36;97097.97;5068708;28;20219;-72
2022/06/29 03:20:45;;;;;;;3.60;2.83;;;;;;;24.45;50.26;97092.34;5071169;28;20254;-73
2022/06/29 03:23:12;;;;;;;3.40;3.10;;;;;;;24.42;50.44;97095.31;5053226;28;20202;-72
2022/06/29 03:25:39;;;;;;;3.70;2.80;;;;;;;24.51;50.73;97091.72;5070501;28;20247;-72
2022/06/29 03:28:07;;;;;;;3.67;3.30;;;;;;;24.51;50.83;97102.31;5053034;28;20194;-72
2022/06/29 03:30:34;;;;;;;6.27;3.10;;;;;;;24.54;50.38;97091.44;5070647;28;20194;-72
2022/06/29 03:33:01;;;;;;;5.83;3.13;;;;;;;24.53;51.08;97084.47;5070038;28;20198;-72
2022/06/29 03:35:28;;;;;;;3.67;3.37;;;;;;;24.67;50.40;97086.53;5070973;28;20191;-72
2022/06/29 03:37:55;;;;;;;6.27;3.60;;;;;;;24.67;50.00;97086.53;5052094;28;20670;-72
2022/06/29 03:40:22;;;;;;;4.37;3.13;;;;;;;24.69;49.85;97087.25;5071752;28;20259;-71
2022/06/29 03:42:50;;;;;;;4.40;3.23;;;;;;;24.65;50.30;97083.22;5071485;28;20247;-72
2022/06/29 03:45:17;;;;;;;4.60;3.60;;;;;;;24.92;49.72;97089.22;5037390;28;20198;-72
2022/06/29 03:47:44;;;;;;;4.17;3.30;;;;;;;25.03;50.28;97082.81;5076636;28;20193;-73
2022/06/29 03:50:11;;;;;;;10.13;4.60;;;;;;;25.61;50.24;97089.06;5061583;28;20295;-73
2022/06/29 03:52:38;;;;;;;7.03;4.17;;;;;;;26.07;49.13;97098.28;5079118;28;20298;-73
2022/06/29 03:55:06;;;;;;;5.77;3.90;;;;;;;26.21;49.18;97087.03;5080962;28;20554;-74
2022/06/29 03:57:33;;;;;;;6.80;3.47;;;;;;;26.17;48.15;97085.66;5075876;28;20738;-74
2022/06/29 04:00:01;;;;;;;5.90;3.40;;;;;;;26.12;47.54;97085.34;5054416;28;20200;-74
2022/06/29 04:02:39;;;;;;;6.50;3.00;;;;;;;26.10;46.50;97087.34;5072653;28;20662;-73
2022/06/29 04:05:07;;;;;;;4.17;3.10;;;;;;;25.97;46.70;97094.06;5072566;28;20254;-73
2022/06/29 04:07:35;;;;;;;6.07;3.33;;;;;;;25.82;46.77;97086.75;5070738;28;20233;-73
2022/06/29 04:10:02;;;;;;;4.57;2.73;;;;;;;25.80;46.99;97099.34;5072138;28;20193;-73
2022/06/29 04:12:32;;;;;;;3.50;3.00;;;;;;;25.97;46.72;97099.38;5070798;28;20246;-74
2022/06/29 04:15:00;;;;;;;5.57;3.47;;;;;;;26.15;46.90;97105.44;5053819;28;20860;-73
2022/06/29 04:17:29;;;;;;;5.20;2.90;;;;;;;26.14;46.54;97096.63;5069791;28;20256;-73
2022/06/29 04:19:56;;;;;;;4.83;3.17;;;;;;;26.24;45.74;97117.69;5070145;28;20219;-73
2022/06/29 04:22:24;;;;;;;2.83;2.60;;;;;;;26.22;46.10;97119.69;5052981;28;20189;-74
2022/06/29 04:24:51;;;;;;;6.63;3.20;;;;;;;26.19;46.43;97115.56;5069688;28;20586;-74
2022/06/29 04:27:18;;;;;;;8.43;2.93;;;;;;;26.35;45.74;97125.34;5070287;28;20186;-74
2022/06/29 04:29:45;;;;;;;3.97;3.00;;;;;;;26.35;45.41;97120.88;5073244;28;20235;-73
2022/06/29 04:32:12;;;;;;;5.60;2.60;;;;;;;26.60;45.50;97114.53;5069398;28;20231;-74
2022/06/29 04:34:40;;;;;;;3.43;2.63;;;;;;;26.71;44.85;97118.69;5069333;28;20243;-73
2022/06/29 04:37:07;;;;;;;6.70;3.17;;;;;;;26.58;45.05;97121.03;5069435;28;20742;-74
2022/06/29 04:39:35;;;;;;;3.07;2.60;;;;;;;26.79;45.01;97129.34;5069690;28;20189;-74
2022/06/29 04:42:02;;;;;;;4.23;2.60;;;;;;;26.74;45.12;97115.72;5069321;28;20197;-74
2022/06/29 04:44:29;;;;;;;4.80;3.20;;;;;;;26.69;44.75;97120.69;5052013;28;20231;-74
2022/06/29 04:46:56;;;;;;;5.57;2.73;;;;;;;26.82;44.15;97114.88;5068765;28;20704;-73
2022/06/29 04:49:23;;;;;;;3.57;2.90;;;;;;;26.60;44.28;97119.84;5069796;28;20198;-73
2022/06/29 04:51:50;;;;;;;8.73;2.80;;;;;;;26.38;45.29;97119.69;5068698;28;20193;-74
2022/06/29 04:54:17;;;;;;;3.23;2.80;;;;;;;26.45;44.65;97120.69;5069239;28;20199;-73
2022/06/29 04:56:44;;;;;;;2.73;2.40;;;;;;;26.19;44.54;97126.19;5051799;28;20196;-75
2022/06/29 04:59:11;;;;;;;5.60;2.70;;;;;;;26.24;44.81;97137.13;5069161;28;20208;-74
2022/06/29 05:01:39;;;;;;;6.13;3.03;;;;;;;26.54;44.40;97127.69;5069230;28;20197;-74
2022/06/29 05:04:06;;;;;;;5.13;2.50;;;;;;;26.77;44.75;97136.66;5068692;28;20177;-74
2022/06/29 05:06:33;;;;;;;5.20;2.90;;;;;;;26.66;44.22;97125.50;5069544;28;20193;-75
2022/06/29 05:09:00;;;;;;;2.93;2.57;;;;;;;26.38;44.33;97138.28;5068975;28;20220;-75
2022/06/29 05:11:28;;;;;;;2.47;2.27;;;;;;;26.19;45.04;97125.34;5068986;28;20182;-74
2022/06/29 05:13:55;;;;;;;4.43;2.80;;;;;;;26.38;44.90;97125.00;5068875;28;20224;-75
2022/06/29 05:16:22;;;;;;;3.30;2.40;;;;;;;26.52;44.45;97130.47;5068337;28;20567;-74
2022/06/29 05:18:50;;;;;;;5.97;2.73;;;;;;;26.51;44.38;97130.66;5069032;28;20217;-75
2022/06/29 05:21:19;;;;;;;3.17;2.60;;;;;;;26.53;43.78;97137.47;5050455;28;20189;-76
2022/06/29 05:23:47;;;;;;;3.53;2.20;;;;;;;26.52;43.98;97137.66;5051154;28;20219;-75
2022/06/29 05:26:15;;;;;;;3.30;2.37;;;;;;;26.50;44.13;97097.13;5068058;28;20212;-74
2022/06/29 05:28:42;;;;;;;2.70;2.50;;;;;;;26.78;43.91;97124.19;5050864;28;20193;-73
2022/06/29 05:31:09;;;;;;;4.63;2.93;;;;;;;26.59;43.81;97120.88;5068306;28;20189;-74
2022/06/29 05:33:36;;;;;;;3.20;2.33;;;;;;;26.73;44.13;97123.88;5067998;28;20642;-73
2022/06/29 05:36:06;;;;;;;3.30;2.97;;;;;;;26.81;43.45;97131.84;5067231;28;20217;-75
2022/06/29 05:38:34;;;;;;;4.03;3.03;;;;;;;26.54;43.91;97148.94;5049681;28;20228;-74
2022/06/29 05:41:01;;;;;;;3.33;3.03;;;;;;;26.52;44.54;97132.34;5068135;28;20185;-74
2022/06/29 05:43:30;;;;;;;5.27;3.13;;;;;;;26.56;44.14;97128.34;5067496;28;20188;-74
2022/06/29 05:45:57;;;;;;;3.73;3.00;;;;;;;26.81;43.72;97119.38;5033715;28;20252;-74
2022/06/29 05:48:25;;;;;;;3.93;3.53;;;;;;;27.06;43.55;97118.31;5067867;28;20204;-73
2022/06/29 05:50:52;;;;;;;3.23;2.97;;;;;;;26.83;43.15;97109.38;5067681;28;20198;-74
2022/06/29 05:53:19;;;;;;;4.00;3.40;;;;;;;27.21;43.75;97134.41;5068361;28;20764;-73
2022/06/29 05:55:46;;;;;;;3.50;3.20;;;;;;;27.59;42.49;97127.47;5049018;28;20193;-74
2022/06/29 05:58:18;;;;;;;5.27;3.40;;;;;;;27.53;42.97;97125.50;5068167;28;20389;-74
2022/06/29 06:00:49;;;;;;;4.53;3.53;;;;;;;27.66;42.23;97147.06;5066813;28;20181;-74
2022/06/29 06:03:17;;;;;;;4.50;3.90;;;;;;;27.76;41.90;97140.53;5049353;28;20196;-74
2022/06/29 06:05:45;;;;;;;7.83;4.00;;;;;;;27.93;42.99;97149.25;5066355;28;20181;-74
2022/06/29 06:08:15;;;;;;;4.00;3.57;;;;;;;27.74;45.39;97150.53;5067595;28;20200;-74
2022/06/29 06:10:42;;;;;;;5.30;3.93;;;;;;;28.03;44.17;97142.75;5067649;28;20192;-74
2022/06/29 06:13:09;;;;;;;4.90;3.20;;;;;;;28.66;43.83;97145.16;5049001;28;20643;-75
2022/06/29 06:15:38;;;;;;;9.67;6.10;;;;;;;28.97;42.25;97148.50;5067726;28;20182;-74
2022/06/29 06:18:05;;;;;;;6.70;3.80;;;;;;;29.42;41.87;97163.59;5066756;28;20811;-74
2022/06/29 06:20:33;;;;;;;8.37;4.50;;;;;;;29.31;42.31;97149.84;5067082;28;20661;-74
2022/06/29 06:23:00;;;;;;;7.60;3.57;;;;;;;29.47;41.50;97142.50;5049059;28;20220;-74
2022/06/29 06:25:30;;;;;;;6.27;3.67;;;;;;;29.54;41.84;97143.41;5066492;28;20189;-74
2022/06/29 06:27:57;;;;;;;5.83;4.13;;;;;;;29.62;41.32;97139.81;5067097;28;20193;-74
2022/06/29 06:30:25;;;;;;;6.27;4.53;;;;;;;29.84;40.81;97149.59;5066466;28;20193;-75
2022/06/29 06:32:53;;;;;;;6.10;4.17;;;;;;;30.17;40.99;97141.94;5067398;28;20197;-75
2022/06/29 06:35:22;;;;;;;16.60;7.30;;;;;;;30.09;40.81;97128.72;5032408;28;20669;-75
2022/06/29 06:37:52;;;;;;;11.97;5.97;;;;;;;30.11;40.62;97137.34;5066997;28;20308;-74
2022/06/29 06:43:04;;;;;;;3.83;3.40;;;;;;;30.47;39.43;97140.81;5048455;28;20671;-75
2022/06/29 06:45:33;;;;;;;5.57;2.97;;;;;;;30.57;38.89;97146.69;5067091;28;20254;-75
2022/06/29 06:48:00;;;;;;;6.47;3.70;;;;;;;30.35;39.64;97129.84;5065931;28;20584;-75
2022/06/29 06:50:28;;;;;;;8.93;4.10;;;;;;;30.39;39.28;97131.09;5049391;28;21011;-76
2022/06/29 06:52:55;;;;;;;16.13;5.50;;;;;;;30.42;39.58;97135.22;5064962;28;20189;-75
2022/06/29 06:55:22;;;;;;;11.60;6.13;;;;;;;30.44;39.03;97135.84;5066031;28;20190;-74
2022/06/29 06:57:49;;;;;;;7.03;4.00;;;;;;;30.63;39.32;97134.38;5066426;28;20746;-74
2022/06/29 07:00:17;;;;;;;5.20;4.10;;;;;;;30.71;38.65;97132.41;5048038;28;20178;-74
2022/06/29 07:02:44;;;;;;;7.17;4.40;;;;;;;30.77;38.50;97128.94;5048336;28;20193;-74
2022/06/29 07:05:11;;;;;;;7.30;4.63;;;;;;;30.75;38.34;97130.19;5047810;28;20192;-74
2022/06/29 07:07:39;;;;;;;5.03;4.27;;;;;;;30.60;39.07;97119.56;5048784;28;20212;-74
2022/06/29 07:10:06;;;;;;;6.57;4.57;;;;;;;30.76;37.94;97131.81;5065948;28;20188;-74
2022/06/29 07:12:33;;;;;;;8.10;4.83;;;;;;;30.55;38.34;97138.03;5065698;28;20193;-75
2022/06/29 07:15:00;;;;;;;4.70;3.70;;;;;;;30.73;37.95;97126.88;5066158;28;20193;-75
2022/06/29 07:17:29;;;;;;;7.47;4.50;;;;;;;30.94;37.04;97135.72;5047209;28;20600;-74
2022/06/29 07:19:55;;;;;;;5.90;3.80;;;;;;;31.00;36.62;97128.75;5048567;28;20189;-75
2022/06/29 07:22:23;;;;;;;5.53;4.07;;;;;;;31.16;36.14;97144.53;5065695;28;20185;-75
2022/06/29 07:24:51;;;;;;;6.33;4.03;;;;;;;30.92;36.22;97135.06;5066592;28;20200;-75
2022/06/29 07:27:18;;;;;;;6.43;4.13;;;;;;;31.22;35.77;97133.84;5014724;28;20193;-75
2022/06/29 07:29:45;;;;;;;6.67;4.60;;;;;;;31.03;35.28;97139.06;5047952;28;20738;-75
2022/06/29 07:32:12;;;;;;;8.33;5.57;;;;;;;31.21;34.89;97136.72;5065849;28;20234;-75
2022/06/29 07:34:39;;;;;;;9.03;6.17;;;;;;;31.24;34.12;97142.50;5065782;28;20185;-75
2022/06/29 07:37:07;;;;;;;5.50;4.13;;;;;;;31.35;33.70;97140.31;5066934;28;20763;-74
2022/06/29 07:39:34;;;;;;;5.50;4.53;;;;;;;31.35;32.91;97135.75;5065439;28;20217;-74
2022/06/29 07:42:21;;;;;;;5.90;4.57;;;;;;;31.09;33.79;97120.38;5066204;28;20194;-74
2022/06/29 07:44:49;;;;;;;6.67;4.30;;;;;;;31.12;32.85;97127.16;5065581;28;20689;-74
2022/06/29 07:47:16;;;;;;;8.40;4.90;;;;;;;31.22;32.91;97135.72;5065861;28;20268;-74
2022/06/29 07:49:43;;;;;;;7.00;6.28;;;;;;;31.31;33.62;97126.47;5066016;28;20287;-75
2022/06/29 07:52:10;;;;;;;5.27;4.77;;;;;;;31.17;34.19;97130.94;5065700;28;20197;-74
2022/06/29 07:54:37;;;;;;;7.23;4.13;;;;;;;31.31;34.20;97132.66;5065751;28;20198;-75
2022/06/29 07:57:04;;;;;;;8.37;4.97;;;;;;;31.21;34.34;97123.31;5065133;28;20193;-74
2022/06/29 07:59:47;;;;;;;4.60;4.10;;;;;;;31.35;33.98;97133.09;5047737;28;20236;-74
2022/06/29 08:02:15;;;;;;;5.43;4.20;;;;;;;31.30;33.90;97128.31;5047560;28;20189;-75
2022/06/29 08:04:43;;;;;;;10.03;5.07;;;;;;;31.35;33.37;97135.75;5067499;28;20188;-74
2022/06/29 08:07:31;;;;;;;7.53;4.50;;;;;;;31.45;32.79;97122.88;5069875;28;20181;-75
2022/06/29 08:09:58;;;;;;;4.87;3.60;;;;;;;31.24;32.83;97128.31;5068653;28;20201;-75
2022/06/29 08:12:25;;;;;;;5.13;4.27;;;;;;;31.14;33.04;97125.97;5051693;28;20200;-75
2022/06/29 08:14:52;;;;;;;5.60;3.37;;;;;;;31.07;33.07;97132.31;5051540;28;20197;-74
2022/06/29 08:17:19;;;;;;;5.87;4.50;;;;;;;31.22;33.25;97138.38;5069426;28;20181;-74
2022/06/29 08:19:46;;;;;;;7.97;4.10;;;;;;;31.04;32.15;97133.50;5051390;28;20233;-74
2022/06/29 08:22:13;;;;;;;5.53;3.90;;;;;;;30.50;32.92;97119.88;5068898;28;20186;-74
2022/06/29 08:24:41;;;;;;;5.73;4.10;;;;;;;30.34;33.38;97148.72;5069663;28;20289;-74
2022/06/29 08:27:08;;;;;;;5.20;4.00;;;;;;;30.43;33.00;97148.41;5068340;28;20200;-75
2022/06/29 08:29:55;;;;;;;5.60;4.57;;;;;;;30.65;33.24;97137.69;5050936;28;20196;-75
2022/06/29 08:32:22;;;;;;;6.20;4.37;;;;;;;31.03;32.36;97139.06;5068693;28;20189;-74
2022/06/29 08:34:49;;;;;;;6.43;5.13;;;;;;;31.30;31.30;97131.00;5069387;28;20260;-74
2022/06/29 08:37:16;;;;;;;5.60;4.80;;;;;;;31.58;30.19;97127.47;5068942;28;20224;-74
2022/06/29 08:39:44;;;;;;;7.63;4.67;;;;;;;31.44;30.76;97128.44;5067272;28;20219;-74
2022/06/29 08:42:11;;;;;;;7.50;4.70;;;;;;;31.44;29.06;97131.94;5069693;28;20185;-74
2022/06/29 08:44:38;;;;;;;9.17;4.93;;;;;;;30.81;31.11;97145.47;5068236;28;20194;-74
2022/06/29 08:47:11;;;;;;;8.20;3.80;;;;;;;30.29;29.80;97135.94;5051129;28;20197;-74
2022/06/29 08:49:38;;;;;;;7.13;3.00;;;;;;;30.08;29.68;97121.69;5068446;28;20997;-74
2022/06/29 08:52:07;;;;;;;6.80;4.07;;;;;;;30.23;30.02;97141.19;5050626;28;20283;-75
2022/06/29 08:54:39;;;;;;;6.07;3.90;;;;;;;30.47;29.08;97144.34;5069135;28;20288;-74
2022/06/29 08:57:07;;;;;;;5.17;2.97;;;;;;;30.77;28.03;97144.19;5068034;28;20692;-74
2022/06/29 08:59:34;;;;;;;4.13;2.73;;;;;;;29.92;29.24;97148.66;5068970;28;20225;-75
2022/06/29 09:02:22;;;;;;;4.87;2.90;;;;;;;30.11;28.65;97148.03;5068099;28;20560;-74
2022/06/29 09:04:50;;;;;;;5.47;3.00;;;;;;;30.05;30.12;97136.25;5068121;28;20192;-74
2022/06/29 09:07:17;;;;;;;4.40;2.90;;;;;;;29.81;29.80;97138.44;5068346;28;20219;-74
2022/06/29 09:10:05;;;;;;;9.60;4.87;;;;;;;30.23;29.21;97146.53;5068067;28;20197;-75
2022/06/29 09:12:32;;;;;;;4.83;2.87;;;;;;;30.25;28.84;97145.28;5067130;28;20182;-74
2022/06/29 09:15:01;;;;;;;5.87;3.00;;;;;;;30.51;28.30;97158.97;5067357;28;20201;-74
2022/06/29 09:17:33;;;;;;;7.17;3.13;;;;;;;30.78;28.76;97141.31;5067712;28;20201;-74
2022/06/29 09:20:01;;;;;;;5.97;3.93;;;;;;;30.96;28.20;97148.88;5067952;28;20221;-74
2022/06/29 09:22:56;;;;;;;4.57;2.83;;;;;;;30.59;29.37;97149.97;5049598;28;20185;-73
2022/06/29 09:25:31;;;;;;;4.23;2.57;;;;;;;30.83;28.50;97146.09;5050361;28;20611;-74
2022/06/29 09:27:58;;;;;;;5.73;2.20;;;;;;;30.99;28.54;97140.47;5066042;28;20250;-74
2022/06/29 09:30:28;;;;;;;6.17;2.80;;;;;;;31.31;27.38;97147.88;5067982;28;20621;-75
2022/06/29 09:33:04;;;;;;;3.43;2.60;;;;;;;30.77;28.58;97154.88;5049837;28;20197;-74
2022/06/29 09:35:34;;;;;;;5.67;2.70;;;;;;;30.02;29.92;97157.19;5049198;28;20239;-74
2022/06/29 09:38:24;;;;;;;4.43;2.67;;;;;;;29.82;29.29;97159.59;5049652;28;20658;-75
2022/06/29 09:41:03;;;;;;;6.87;3.03;;;;;;;29.83;29.52;97155.94;5049109;28;20229;-74
2022/06/29 09:43:33;;;;;;;4.60;2.50;;;;;;;30.15;29.60;97147.44;5049612;28;20196;-74
2022/06/29 09:46:00;;;;;;;4.43;2.63;;;;;;;30.50;29.46;97138.59;5049562;28;20197;-75
2022/06/29 09:48:30;;;;;;;4.23;2.80;;;;;;;31.08;28.84;97136.63;5049472;28;20240;-75
2022/06/29 09:50:59;;;;;;;6.03;2.73;;;;;;;31.35;28.70;97141.13;5068054;28;20690;-75
2022/06/29 09:53:37;;;;;;;4.30;2.30;;;;;;;31.60;27.66;97131.59;5067112;28;20223;-75
2022/06/29 09:56:13;;;;;;;3.57;3.03;;;;;;;31.55;28.34;97128.69;5049804;28;20234;-75
2022/06/29 09:58:46;;;;;;;3.20;2.13;;;;;;;31.65;27.76;97121.13;5067145;28;20221;-75
2022/06/29 10:04:02;;;;;;;2.53;2.33;;;;;;;31.31;28.81;97135.34;5068001;28;20667;-76
2022/06/29 10:06:29;;;;;;;6.13;2.67;;;;;;;31.40;28.89;97122.66;5048783;28;20200;-72
2022/06/29 10:09:03;;;;;;;4.43;2.80;;;;;;;30.86;29.52;97146.56;5049645;28;20189;-73
2022/06/29 10:14:43;;;;;;;4.77;2.80;;;;;;;30.61;30.06;97147.94;5066382;28;20270;-76
2022/06/29 10:17:25;;;;;;;3.80;2.60;;;;;;;31.03;29.79;97134.53;5049613;28;20196;-74
2022/06/29 10:20:24;;;;;;;5.03;2.87;;;;;;;31.41;29.34;97135.00;5047945;28;20220;-74
2022/06/29 10:22:51;;;;;;;7.60;2.47;;;;;;;31.81;28.94;97139.53;5033069;28;20639;-74
2022/06/29 10:25:27;;;;;;;4.67;2.90;;;;;;;31.84;29.11;97133.75;5066888;28;20186;-74
2022/06/29 10:28:09;;;;;;;3.60;3.00;;;;;;;32.00;28.83;97119.22;5066086;28;20185;-74
2022/06/29 10:30:37;;;;;;;4.80;2.90;;;;;;;32.17;28.41;97119.69;5067063;28;20193;-74
2022/06/29 10:33:29;;;;;;;5.93;2.83;;;;;;;31.98;28.63;97123.97;5066606;28;20272;-74
2022/06/29 10:36:08;;;;;;;6.90;2.67;;;;;;;30.88;30.17;97135.66;5048490;28;20247;-73
2022/06/29 10:38:57;;;;;;;5.27;2.50;;;;;;;30.59;29.84;97127.75;5049235;28;20229;-75
2022/06/29 10:44:11;;;;;;;5.30;2.40;;;;;;;30.99;29.59;97127.94;5066266;28;20296;-74
2022/06/29 10:46:58;;;;;;;3.70;2.73;;;;;;;31.14;30.15;97119.81;5048701;28;20220;-74
2022/06/29 10:49:25;;;;;;;4.17;2.77;;;;;;;31.34;29.40;97110.03;5065894;28;20189;-75
2022/06/29 10:51:53;;;;;;;3.30;2.80;;;;;;;31.37;30.11;97109.63;5049128;28;20197;-75
2022/06/29 10:54:32;;;;;;;8.70;3.80;;;;;;;31.69;30.72;97111.69;5048421;28;20720;-74
2022/06/29 10:56:59;;;;;;;5.43;2.90;;;;;;;31.61;30.28;97117.22;5048254;28;20274;-73
2022/06/29 10:59:39;;;;;;;2.90;2.33;;;;;;;31.36;29.86;97110.66;5066395;28;20217;-73
2022/06/29 11:02:13;;;;;;;4.63;2.57;;;;;;;31.14;29.06;97115.25;5047601;28;20278;-74
2022/06/29 11:04:41;;;;;;;4.80;2.20;;;;;;;30.85;29.68;97112.78;5066847;28;20247;-74
2022/06/29 11:12:49;;;;;;;5.17;2.30;;;;;;;31.15;29.34;97116.91;5066578;28;20188;-74
2022/06/29 11:15:48;;;;;;;2.73;2.40;;;;;;;31.36;29.01;97104.47;5066290;28;20553;-74
2022/06/29 11:18:19;;;;;;;4.07;2.27;;;;;;;31.60;28.43;97112.03;5066636;28;20213;-74
2022/06/29 11:20:51;;;;;;;3.67;2.60;;;;;;;31.92;28.51;97104.09;5048064;28;20245;-74
2022/06/29 11:23:21;;;;;;;7.23;2.60;;;;;;;31.76;27.88;97115.19;5066473;28;20191;-74
2022/06/29 11:25:53;;;;;;;4.63;2.50;;;;;;;31.52;28.57;97080.06;5066426;28;20181;-74
2022/06/29 11:28:23;;;;;;;2.97;2.17;;;;;;;31.55;28.82;97104.59;5047638;28;20189;-74
2022/06/29 11:31:00;;;;;;;5.47;2.73;;;;;;;31.58;29.82;97098.84;5048230;28;20585;-74
2022/06/29 11:33:30;;;;;;;2.67;2.47;;;;;;;31.56;30.09;97098.22;5065766;28;20243;-75
2022/06/29 11:36:04;;;;;;;3.97;2.90;;;;;;;31.54;29.68;97099.44;5065737;28;20282;-75
2022/06/29 11:38:36;;;;;;;4.97;2.93;;;;;;;31.64;29.82;97095.38;5066009;28;20660;-75
2022/06/29 11:41:16;;;;;;;3.43;2.40;;;;;;;31.05;30.83;97095.03;5069363;28;20201;-74
2022/06/29 11:44:06;;;;;;;3.80;2.60;;;;;;;31.06;30.74;97069.09;5052408;28;20197;-74
2022/06/29 11:46:36;;;;;;;3.57;2.70;;;;;;;30.75;30.97;97088.19;5069987;28;20194;-74
2022/06/29 11:51:52;;;;;;;4.87;2.90;;;;;;;30.75;31.14;97066.00;5070185;28;20193;-74
2022/06/29 11:55:00;;;;;;;10.17;5.57;;;;;;;30.88;30.91;97082.97;5051024;28;20209;-74
2022/06/29 11:57:28;;;;;;;4.33;2.67;;;;;;;30.71;31.54;97072.75;5069766;28;20193;-74
2022/06/29 12:00:08;;;;;;;6.07;3.37;;;;;;;30.94;31.62;97076.00;5051790;28;20223;-74
2022/06/29 12:02:35;;;;;;;3.97;2.87;;;;;;;30.66;31.42;97067.16;5069650;28;20292;-74
2022/06/29 12:05:03;;;;;;;4.03;2.77;;;;;;;30.32;32.13;97070.56;5070625;28;20188;-73
2022/06/29 12:07:30;;;;;;;3.33;2.47;;;;;;;30.18;31.91;97074.94;5069277;28;20217;-73
2022/06/29 12:09:59;;;;;;;6.47;3.63;;;;;;;30.23;32.51;97071.69;5069651;28;20192;-73